Time;durP1;ratioP1;P1;durP2;ratioP2;P2;SDS_P1;SDS_P2;PMS_P1;PMS_P2;Temp;Humidity;BMP_temperature;BMP_pressure;BME280_temperature;BME280_humidity;BME280_pressure;Samples;Min_cycle;Max_cycle;Signal;HPM_P1;HPM_P2
2022/03/01 00:01:42;;;;;;;0.50;0.50;;;3.60;99.90;;;;;;5026996;28;20184;-84
2022/03/01 00:04:08;;;;;;;1.83;0.70;;;3.50;99.90;;;;;;5028448;28;20242;-85
2022/03/01 00:06:33;;;;;;;0.20;0.20;;;3.50;99.90;;;;;;5028448;28;20669;-84
2022/03/01 00:08:59;;;;;;;1.07;0.70;;;3.50;99.90;;;;;;5025399;28;20685;-84
2022/03/01 00:11:25;;;;;;;1.13;0.90;;;3.40;99.90;;;;;;5045057;28;20324;-85
2022/03/01 00:13:51;;;;;;;1.90;1.50;;;3.40;99.90;;;;;;5024795;28;20189;-84
2022/03/01 00:16:17;;;;;;;0.97;0.77;;;3.40;99.90;;;;;;5026701;28;20211;-84
2022/03/01 00:18:44;;;;;;;1.10;0.83;;;3.30;99.90;;;;;;5027717;28;20199;-85
2022/03/01 00:21:10;;;;;;;1.27;0.97;;;3.30;99.90;;;;;;5029445;28;20172;-84
2022/03/01 00:23:35;;;;;;;0.40;0.40;;;3.20;99.90;;;;;;5027446;28;20282;-85
2022/03/01 00:26:01;;;;;;;1.77;1.10;;;3.20;99.90;;;;;;5022066;28;20192;-85
2022/03/01 00:28:27;;;;;;;0.93;0.73;;;3.10;99.90;;;;;;5026772;28;20211;-85
2022/03/01 00:30:52;;;;;;;0.63;0.63;;;3.10;99.90;;;;;;5027402;28;20664;-85
2022/03/01 00:33:18;;;;;;;0.43;0.43;;;3.10;99.90;;;;;;5025320;28;20278;-84
2022/03/01 00:35:43;;;;;;;0.40;0.40;;;3.10;99.90;;;;;;5022366;28;20204;-84
2022/03/01 00:38:09;;;;;;;1.00;1.00;;;3.00;99.90;;;;;;5023315;28;20295;-84
2022/03/01 00:40:34;;;;;;;0.73;0.43;;;3.00;99.90;;;;;;5023730;28;20267;-85
2022/03/01 00:43:00;;;;;;;0.50;0.50;;;2.90;99.90;;;;;;5027456;28;20177;-84
2022/03/01 00:45:26;;;;;;;7.77;1.73;;;2.80;99.90;;;;;;5028590;28;20180;-84
2022/03/01 00:47:51;;;;;;;0.50;0.50;;;2.80;99.90;;;;;;5028518;28;20193;-84
2022/03/01 00:50:19;;;;;;;0.87;0.77;;;2.80;99.90;;;;;;5027158;28;21139;-84
2022/03/01 00:52:44;;;;;;;0.20;0.20;;;2.70;99.90;;;;;;5026602;28;20185;-84
2022/03/01 00:55:10;;;;;;;0.60;0.60;;;2.70;99.90;;;;;;5024788;28;20180;-85
2022/03/01 00:57:36;;;;;;;1.00;0.57;;;2.70;99.90;;;;;;5044131;28;20241;-85
2022/03/01 01:00:02;;;;;;;0.83;0.77;;;2.60;99.90;;;;;;5026563;28;20181;-84
2022/03/01 01:02:28;;;;;;;0.67;0.50;;;2.60;99.90;;;;;;5026786;28;20191;-84
2022/03/01 01:04:53;;;;;;;0.33;0.33;;;2.60;99.90;;;;;;5028599;28;20260;-85
2022/03/01 01:07:19;;;;;;;0.70;0.60;;;2.60;99.90;;;;;;5023621;28;20187;-84
2022/03/01 01:09:44;;;;;;;0.63;0.40;;;2.50;99.90;;;;;;5023337;28;20206;-84
2022/03/01 01:12:10;;;;;;;1.13;1.03;;;2.50;99.90;;;;;;5024494;28;20680;-84
2022/03/01 01:14:36;;;;;;;1.90;1.80;;;2.50;99.90;;;;;;5026519;28;20294;-85
2022/03/01 01:17:01;;;;;;;3.27;1.03;;;2.50;99.90;;;;;;5027327;28;20247;-85
2022/03/01 01:19:27;;;;;;;1.60;0.83;;;2.50;99.90;;;;;;5018822;28;20203;-85
2022/03/01 01:24:37;;;;;;;0.30;0.30;;;2.30;99.90;;;;;;5028202;28;20189;-84
2022/03/01 01:27:03;;;;;;;0.77;0.77;;;2.30;99.90;;;;;;5024378;28;20191;-84
2022/03/01 01:29:28;;;;;;;0.53;0.40;;;2.30;99.90;;;;;;5027867;28;20680;-85
2022/03/01 01:31:54;;;;;;;1.13;0.63;;;2.40;99.90;;;;;;5028038;28;20190;-84
2022/03/01 01:34:19;;;;;;;0.80;0.60;;;2.40;99.90;;;;;;5028169;28;20185;-84
2022/03/01 01:36:45;;;;;;;0.80;0.80;;;2.40;99.90;;;;;;5026720;28;20207;-84
2022/03/01 01:39:10;;;;;;;0.47;0.37;;;2.40;99.90;;;;;;5022256;28;20215;-84
2022/03/01 01:41:36;;;;;;;1.23;1.07;;;2.40;99.90;;;;;;5021006;28;20184;-83
2022/03/01 01:44:06;;;;;;;0.30;0.30;;;2.30;99.90;;;;;;5025844;28;20228;-84
2022/03/01 01:46:31;;;;;;;0.43;0.43;;;2.30;99.90;;;;;;5028071;28;20193;-84
2022/03/01 01:48:57;;;;;;;0.43;0.43;;;2.30;99.90;;;;;;5024006;28;20614;-84
2022/03/01 01:51:24;;;;;;;1.60;1.23;;;2.20;99.90;;;;;;5027856;28;20198;-84
2022/03/01 01:53:50;;;;;;;0.37;0.37;;;2.20;99.90;;;;;;5020567;28;20196;-84
2022/03/01 01:56:16;;;;;;;1.63;0.83;;;2.20;99.90;;;;;;5023416;28;20248;-84
2022/03/01 01:58:42;;;;;;;0.27;0.27;;;2.10;99.90;;;;;;5026440;28;20252;-84
2022/03/01 02:01:08;;;;;;;0.43;0.43;;;2.10;99.90;;;;;;5027325;28;20661;-84
2022/03/01 02:03:35;;;;;;;0.67;0.67;;;2.10;99.90;;;;;;5027532;28;20188;-83
2022/03/01 02:06:00;;;;;;;0.43;0.30;;;2.00;99.90;;;;;;5021519;28;20680;-83
2022/03/01 02:08:30;;;;;;;0.20;0.20;;;2.10;99.90;;;;;;5026736;28;20209;-83
2022/03/01 02:10:57;;;;;;;1.03;0.70;;;2.00;99.90;;;;;;5021528;28;20206;-85
2022/03/01 02:13:22;;;;;;;2.37;1.07;;;2.00;99.90;;;;;;5026804;28;20658;-84
2022/03/01 02:15:49;;;;;;;0.90;0.90;;;2.00;99.90;;;;;;5028362;28;20223;-84
2022/03/01 02:18:15;;;;;;;0.50;0.50;;;1.90;99.90;;;;;;5024011;28;20210;-84
2022/03/01 02:20:41;;;;;;;1.00;0.80;;;1.90;99.90;;;;;;5025635;28;20587;-83
2022/03/01 02:23:06;;;;;;;5.07;2.23;;;2.00;99.90;;;;;;5026002;28;20200;-84
2022/03/01 02:25:32;;;;;;;1.30;0.87;;;2.00;99.90;;;;;;5024986;28;20193;-84
2022/03/01 02:27:57;;;;;;;1.33;0.80;;;2.00;99.90;;;;;;5028585;28;20208;-84
2022/03/01 02:30:23;;;;;;;0.37;0.37;;;2.00;99.90;;;;;;5023618;28;20658;-84
2022/03/01 02:32:49;;;;;;;1.80;0.87;;;2.00;99.90;;;;;;5024952;28;20192;-84
2022/03/01 02:35:15;;;;;;;0.40;0.40;;;1.90;99.90;;;;;;5023375;28;20182;-84
2022/03/01 02:37:41;;;;;;;1.13;1.13;;;1.90;99.90;;;;;;5027563;28;20677;-84
2022/03/01 02:40:08;;;;;;;0.80;0.80;;;1.90;99.90;;;;;;5024827;28;20256;-84
2022/03/01 02:42:34;;;;;;;0.53;0.53;;;1.80;99.90;;;;;;5026515;28;20238;-84
2022/03/01 02:45:00;;;;;;;1.17;1.03;;;1.80;99.90;;;;;;5029939;28;20682;-84
2022/03/01 02:47:26;;;;;;;0.83;0.83;;;1.70;99.90;;;;;;5027172;28;20219;-84
2022/03/01 02:49:51;;;;;;;0.93;0.93;;;1.70;99.90;;;;;;5021324;28;20286;-84
2022/03/01 02:52:17;;;;;;;0.70;0.70;;;1.70;99.90;;;;;;5023932;28;20236;-84
2022/03/01 02:54:43;;;;;;;0.60;0.60;;;1.70;99.90;;;;;;5022922;28;20189;-84
2022/03/01 02:57:08;;;;;;;0.63;0.63;;;1.70;99.90;;;;;;5023031;28;20215;-84
2022/03/01 02:59:34;;;;;;;4.47;4.07;;;1.70;99.90;;;;;;5024072;28;20257;-84
2022/03/01 03:02:00;;;;;;;0.10;0.10;;;1.60;99.90;;;;;;5022609;28;20183;-83
2022/03/01 03:04:25;;;;;;;0.30;0.30;;;1.60;99.90;;;;;;5022217;28;20206;-84
2022/03/01 03:06:51;;;;;;;2.17;0.87;;;1.50;99.90;;;;;;5023305;28;20188;-83
2022/03/01 03:09:17;;;;;;;0.27;0.27;;;1.50;99.90;;;;;;5024416;28;20211;-84
2022/03/01 03:11:43;;;;;;;1.07;0.93;;;1.50;99.90;;;;;;5024844;28;20203;-84
2022/03/01 03:14:08;;;;;;;0.33;0.33;;;1.50;99.90;;;;;;5026364;28;20198;-84
2022/03/01 03:16:34;;;;;;;1.80;1.33;;;1.50;99.90;;;;;;5024554;28;20254;-84
2022/03/01 03:19:00;;;;;;;0.70;0.70;;;1.40;99.90;;;;;;5026048;28;20208;-84
2022/03/01 03:21:25;;;;;;;4.07;0.63;;;1.50;99.90;;;;;;5025230;28;20198;-84
2022/03/01 03:23:51;;;;;;;1.60;1.20;;;1.40;99.90;;;;;;5026509;28;20549;-83
2022/03/01 03:26:20;;;;;;;2.23;0.80;;;1.40;99.90;;;;;;5024777;28;20199;-84
2022/03/01 03:28:45;;;;;;;0.30;0.30;;;1.40;99.90;;;;;;5027511;28;20280;-84
2022/03/01 03:31:12;;;;;;;0.40;0.40;;;1.40;99.90;;;;;;5026768;28;20182;-84
2022/03/01 03:33:38;;;;;;;1.70;1.60;;;1.40;99.90;;;;;;5025563;28;20683;-84
2022/03/01 03:36:04;;;;;;;1.03;0.90;;;1.30;99.90;;;;;;5026846;28;20215;-84
2022/03/01 03:38:30;;;;;;;0.80;0.80;;;1.30;99.90;;;;;;5027880;28;20267;-84
2022/03/01 03:40:55;;;;;;;1.37;0.63;;;1.30;99.90;;;;;;5029143;28;20625;-84
2022/03/01 03:43:21;;;;;;;0.70;0.67;;;1.30;99.90;;;;;;5023352;28;20194;-85
2022/03/01 03:45:47;;;;;;;0.33;0.33;;;1.30;99.90;;;;;;5026855;28;20189;-84
2022/03/01 03:48:13;;;;;;;0.40;0.40;;;1.30;99.90;;;;;;5026567;28;20217;-84
2022/03/01 03:50:38;;;;;;;0.60;0.47;;;1.30;99.90;;;;;;5026607;28;20182;-84
2022/03/01 03:53:04;;;;;;;1.10;1.00;;;1.30;99.90;;;;;;5022403;28;20189;-84
2022/03/01 03:55:30;;;;;;;1.03;0.67;;;1.20;99.90;;;;;;5027180;28;20266;-84
2022/03/01 03:57:55;;;;;;;0.27;0.27;;;1.20;99.90;;;;;;5023412;28;21002;-83
2022/03/01 04:00:21;;;;;;;1.80;1.30;;;1.10;99.90;;;;;;5022682;28;20215;-84
2022/03/01 04:02:48;;;;;;;0.50;0.33;;;1.10;99.90;;;;;;5021993;28;20189;-84
2022/03/01 04:05:15;;;;;;;0.70;0.70;;;1.10;99.90;;;;;;5025130;28;20209;-84
2022/03/01 04:07:45;;;;;;;0.37;0.37;;;1.10;99.90;;;;;;5025181;28;20196;-83
2022/03/01 04:10:12;;;;;;;1.03;0.40;;;1.10;99.90;;;;;;5022193;28;20194;-84
2022/03/01 04:12:39;;;;;;;3.27;1.20;;;1.00;99.90;;;;;;5029643;28;20221;-84
2022/03/01 04:15:06;;;;;;;1.23;1.13;;;1.00;99.90;;;;;;5028958;28;20206;-83
2022/03/01 04:17:31;;;;;;;1.93;0.77;;;1.00;99.90;;;;;;5027996;28;20587;-84
2022/03/01 04:19:57;;;;;;;0.40;0.40;;;1.00;99.90;;;;;;5030635;28;20210;-84
2022/03/01 04:22:22;;;;;;;0.80;0.80;;;1.00;99.90;;;;;;5025317;28;20627;-83
2022/03/01 04:24:48;;;;;;;5.20;1.80;;;1.00;99.90;;;;;;5028157;28;20576;-84
2022/03/01 04:27:14;;;;;;;3.43;3.17;;;0.90;99.90;;;;;;5029033;28;20270;-84
2022/03/01 04:29:39;;;;;;;2.00;1.23;;;0.90;99.90;;;;;;5026802;28;20229;-84
2022/03/01 04:32:05;;;;;;;0.83;0.77;;;0.90;99.90;;;;;;5023231;28;20225;-84
2022/03/01 04:34:31;;;;;;;1.63;1.03;;;0.90;99.90;;;;;;5029195;28;20199;-84
2022/03/01 04:36:56;;;;;;;0.20;0.20;;;1.00;99.90;;;;;;5028839;28;20588;-84
2022/03/01 04:39:22;;;;;;;0.37;0.37;;;0.90;99.90;;;;;;5023733;28;20708;-84
2022/03/01 04:41:48;;;;;;;2.17;1.50;;;0.90;99.90;;;;;;5029189;28;20216;-84
2022/03/01 04:44:14;;;;;;;0.73;0.50;;;1.00;99.90;;;;;;5026842;28;20732;-84
2022/03/01 04:46:40;;;;;;;1.87;0.30;;;0.90;99.90;;;;;;5029470;28;20187;-84
2022/03/01 04:49:06;;;;;;;10.10;1.13;;;0.90;99.90;;;;;;5029968;28;20213;-84
2022/03/01 04:51:32;;;;;;;3.60;0.87;;;0.80;99.90;;;;;;5026762;28;20197;-84
2022/03/01 04:53:58;;;;;;;1.30;0.30;;;0.80;99.90;;;;;;5028311;28;20184;-84
2022/03/01 04:56:24;;;;;;;0.57;0.57;;;0.80;99.90;;;;;;5029347;28;20248;-83
2022/03/01 04:58:52;;;;;;;3.10;0.77;;;0.70;99.90;;;;;;5027221;28;20679;-84
2022/03/01 05:01:18;;;;;;;1.50;0.77;;;0.70;99.90;;;;;;5022811;28;20240;-84
2022/03/01 05:03:43;;;;;;;0.80;0.80;;;0.70;99.90;;;;;;5023709;28;20190;-83
2022/03/01 05:06:09;;;;;;;1.87;1.73;;;0.70;99.90;;;;;;5027614;28;20688;-85
2022/03/01 05:08:35;;;;;;;7.40;1.20;;;0.60;99.90;;;;;;5026510;28;20934;-84
2022/03/01 05:11:02;;;;;;;0.20;0.20;;;0.70;99.90;;;;;;5025978;28;20197;-84
2022/03/01 05:13:28;;;;;;;0.63;0.63;;;0.60;99.90;;;;;;5028146;28;20206;-83
2022/03/01 05:15:53;;;;;;;0.40;0.40;;;0.60;99.90;;;;;;5028082;28;20211;-84
2022/03/01 05:18:20;;;;;;;0.63;0.63;;;0.60;99.90;;;;;;5022596;28;20217;-85
2022/03/01 05:20:46;;;;;;;0.93;0.30;;;0.50;99.90;;;;;;5022218;28;20183;-83
2022/03/01 05:23:11;;;;;;;1.37;1.27;;;0.50;99.90;;;;;;5023007;28;20186;-84
2022/03/01 05:25:38;;;;;;;0.43;0.43;;;0.50;99.90;;;;;;5026885;28;20179;-84
2022/03/01 05:28:04;;;;;;;0.37;0.37;;;0.40;99.90;;;;;;5020702;28;20203;-84
2022/03/01 05:30:30;;;;;;;0.70;0.70;;;0.40;99.90;;;;;;5026481;28;20277;-84
2022/03/01 05:32:56;;;;;;;0.70;0.60;;;0.40;99.90;;;;;;5026633;28;20268;-83
2022/03/01 05:35:25;;;;;;;0.63;0.43;;;0.40;99.90;;;;;;5024305;28;20179;-85
2022/03/01 05:37:52;;;;;;;0.70;0.70;;;0.40;99.90;;;;;;5024633;28;20204;-84
2022/03/01 05:40:19;;;;;;;1.63;0.97;;;0.30;99.90;;;;;;5025617;28;20197;-85
2022/03/01 05:42:46;;;;;;;0.23;0.23;;;0.40;99.90;;;;;;5020546;28;20191;-83
2022/03/01 05:45:12;;;;;;;0.67;0.67;;;0.30;99.90;;;;;;5024326;28;20179;-84
2022/03/01 05:47:40;;;;;;;0.60;0.30;;;0.40;99.90;;;;;;5024147;28;20188;-85
2022/03/01 05:50:06;;;;;;;0.47;0.47;;;0.30;99.90;;;;;;5026321;28;20196;-84
2022/03/01 05:52:31;;;;;;;0.20;0.20;;;0.30;99.90;;;;;;5025952;28;20239;-84
2022/03/01 05:54:57;;;;;;;2.90;2.50;;;0.20;99.90;;;;;;5023218;28;20183;-84
2022/03/01 05:57:28;;;;;;;0.53;0.53;;;0.20;99.90;;;;;;5024659;28;20209;-83
2022/03/01 05:59:54;;;;;;;0.83;0.83;;;0.30;99.90;;;;;;5021751;28;20294;-84
2022/03/01 06:02:20;;;;;;;1.30;1.20;;;0.20;99.90;;;;;;5023224;28;20183;-84
2022/03/01 06:04:45;;;;;;;0.40;0.40;;;0.20;99.90;;;;;;5025571;28;20268;-85
2022/03/01 06:07:11;;;;;;;0.80;0.80;;;0.20;99.90;;;;;;5028020;28;20197;-84
2022/03/01 06:09:36;;;;;;;4.43;0.77;;;0.20;99.90;;;;;;5027637;28;20301;-84
2022/03/01 06:12:02;;;;;;;3.17;0.77;;;0.20;99.90;;;;;;5027021;28;20187;-83
2022/03/01 06:14:28;;;;;;;1.57;0.63;;;0.20;99.90;;;;;;5021587;28;20274;-84
2022/03/01 06:16:53;;;;;;;1.40;0.73;;;0.10;99.90;;;;;;5024267;28;20207;-84
2022/03/01 06:19:19;;;;;;;4.70;1.47;;;0.10;99.90;;;;;;5025739;28;20214;-83
2022/03/01 06:21:45;;;;;;;0.63;0.57;;;0.20;99.90;;;;;;5023073;28;20186;-83
2022/03/01 06:24:11;;;;;;;4.30;0.70;;;0.20;99.90;;;;;;5025849;28;20616;-84
2022/03/01 06:26:37;;;;;;;0.47;0.47;;;0.20;99.90;;;;;;5024727;28;20816;-84
2022/03/01 06:29:03;;;;;;;0.50;0.50;;;0.20;99.90;;;;;;5027767;28;20206;-84
2022/03/01 06:31:29;;;;;;;0.37;0.37;;;0.20;99.90;;;;;;5020280;28;20252;-83
2022/03/01 06:33:56;;;;;;;1.00;0.90;;;0.30;99.90;;;;;;5024025;28;20216;-82
2022/03/01 06:36:24;;;;;;;0.70;0.70;;;0.30;99.90;;;;;;5024069;28;20210;-82
2022/03/01 06:38:50;;;;;;;0.33;0.33;;;0.30;99.90;;;;;;5024007;28;20204;-82
2022/03/01 06:41:16;;;;;;;0.43;0.43;;;0.40;99.90;;;;;;5027303;28;20707;-83
2022/03/01 06:43:41;;;;;;;1.00;0.90;;;0.50;99.90;;;;;;5025983;28;20255;-82
2022/03/01 06:46:08;;;;;;;0.20;0.20;;;0.50;99.90;;;;;;5025716;28;20253;-82
2022/03/01 06:48:34;;;;;;;0.70;0.67;;;0.60;99.90;;;;;;5030948;28;20214;-82
2022/03/01 06:51:00;;;;;;;1.43;0.63;;;0.70;99.90;;;;;;5028165;28;20197;-82
2022/03/01 06:53:25;;;;;;;0.57;0.50;;;0.80;99.90;;;;;;5028432;28;20184;-82
2022/03/01 06:55:51;;;;;;;0.30;0.30;;;0.80;99.90;;;;;;5026745;28;20196;-82
2022/03/01 06:58:17;;;;;;;2.43;0.77;;;0.90;99.90;;;;;;5023771;28;20252;-82
2022/03/01 07:00:42;;;;;;;1.20;0.90;;;1.00;99.90;;;;;;5023137;28;20187;-81
2022/03/01 07:03:08;;;;;;;0.77;0.77;;;1.10;99.90;;;;;;5025487;28;20195;-82
2022/03/01 07:05:33;;;;;;;0.70;0.70;;;1.20;99.90;;;;;;5028118;28;20556;-82
2022/03/01 07:07:59;;;;;;;0.37;0.37;;;1.20;99.90;;;;;;5027036;28;20547;-82
2022/03/01 07:10:25;;;;;;;0.50;0.50;;;1.30;99.90;;;;;;5029192;28;20426;-82
2022/03/01 07:12:50;;;;;;;0.97;0.80;;;1.40;99.90;;;;;;5025174;28;20192;-82
2022/03/01 07:15:17;;;;;;;0.47;0.47;;;1.50;99.90;;;;;;5022435;28;20193;-83
2022/03/01 07:17:43;;;;;;;0.90;0.90;;;1.60;99.90;;;;;;5022655;28;20219;-82
2022/03/01 07:20:11;;;;;;;1.50;0.70;;;1.70;99.90;;;;;;5026054;28;20226;-82
2022/03/01 07:22:37;;;;;;;1.07;1.07;;;1.70;99.90;;;;;;5023365;28;20221;-82
2022/03/01 07:25:03;;;;;;;2.43;1.07;;;1.80;99.90;;;;;;5022430;28;20255;-82
2022/03/01 07:27:28;;;;;;;0.47;0.47;;;2.00;99.90;;;;;;5024981;28;20212;-82
2022/03/01 07:29:54;;;;;;;1.27;1.17;;;1.90;99.90;;;;;;5030150;28;20861;-83
2022/03/01 07:32:20;;;;;;;8.03;0.60;;;2.00;99.90;;;;;;5028476;28;20201;-82
2022/03/01 07:34:45;;;;;;;0.30;0.30;;;2.00;99.90;;;;;;5026827;28;20211;-83
2022/03/01 07:37:11;;;;;;;0.40;0.40;;;2.30;99.90;;;;;;5028615;28;20295;-83
2022/03/01 07:39:37;;;;;;;0.40;0.40;;;2.40;99.90;;;;;;5029270;28;20293;-83
2022/03/01 07:42:03;;;;;;;9.73;1.27;;;2.40;99.90;;;;;;5032514;28;20189;-83
2022/03/01 07:44:29;;;;;;;0.30;0.30;;;2.20;99.90;;;;;;5026301;28;20187;-82
2022/03/01 07:46:55;;;;;;;1.67;0.80;;;2.40;99.90;;;;;;5028682;28;20226;-83
2022/03/01 07:49:21;;;;;;;1.03;0.93;;;2.60;99.90;;;;;;5026997;28;20216;-82
2022/03/01 07:51:47;;;;;;;1.80;0.70;;;2.70;99.90;;;;;;5032823;28;20192;-82
2022/03/01 07:54:12;;;;;;;1.03;1.03;;;2.50;99.90;;;;;;5026306;28;21345;-81
2022/03/01 07:56:39;;;;;;;0.23;0.23;;;2.70;99.90;;;;;;5029458;28;20244;-82
2022/03/01 07:59:06;;;;;;;1.77;1.43;;;2.90;99.90;;;;;;5028953;28;20251;-82
2022/03/01 08:01:31;;;;;;;0.70;0.70;;;3.20;99.90;;;;;;5029920;28;20241;-82
2022/03/01 08:03:57;;;;;;;1.37;0.87;;;3.20;99.90;;;;;;5030394;28;20196;-83
2022/03/01 08:06:22;;;;;;;0.53;0.53;;;3.20;99.90;;;;;;5029573;28;20323;-82
2022/03/01 08:08:48;;;;;;;0.30;0.30;;;3.20;99.90;;;;;;5030829;28;20208;-82
2022/03/01 08:11:14;;;;;;;0.67;0.67;;;3.50;99.90;;;;;;5025782;28;21095;-83
2022/03/01 08:13:39;;;;;;;1.07;0.80;;;3.40;99.90;;;;;;5028859;28;20275;-83
2022/03/01 08:16:05;;;;;;;0.77;0.77;;;3.30;99.90;;;;;;5028839;28;20701;-82
2022/03/01 08:18:31;;;;;;;1.67;0.97;;;3.60;99.90;;;;;;5029341;28;20204;-82
2022/03/01 08:20:57;;;;;;;2.40;1.10;;;3.90;99.90;;;;;;5030564;28;20653;-83
2022/03/01 08:23:24;;;;;;;0.87;0.87;;;4.10;99.90;;;;;;5029903;28;20269;-83
2022/03/01 08:25:50;;;;;;;1.40;1.07;;;3.60;99.90;;;;;;5045716;28;20181;-82
2022/03/01 08:28:15;;;;;;;1.27;1.27;;;4.00;99.90;;;;;;5027401;28;20215;-82
2022/03/01 08:30:41;;;;;;;0.67;0.67;;;4.20;99.90;;;;;;5030002;28;20207;-82
2022/03/01 08:33:07;;;;;;;2.37;1.93;;;4.40;99.90;;;;;;5029260;28;20196;-82
2022/03/01 08:35:34;;;;;;;1.17;0.67;;;4.50;99.90;;;;;;5028614;28;20204;-83
2022/03/01 08:38:04;;;;;;;2.83;0.97;;;4.50;99.90;;;;;;5026298;28;20271;-83
2022/03/01 08:40:37;;;;;;;0.60;0.60;;;3.70;99.90;;;;;;5028090;28;20187;-82
2022/03/01 08:43:02;;;;;;;0.37;0.37;;;4.00;99.90;;;;;;5027358;28;20250;-83
2022/03/01 08:45:28;;;;;;;2.73;0.33;;;4.10;99.90;;;;;;5025851;28;20750;-83
2022/03/01 08:47:53;;;;;;;0.80;0.60;;;3.90;99.90;;;;;;5027594;28;20193;-82
2022/03/01 08:50:19;;;;;;;1.47;1.37;;;3.90;99.90;;;;;;5027478;28;20196;-82
2022/03/01 08:52:44;;;;;;;0.77;0.60;;;3.90;99.90;;;;;;5020064;28;20669;-83
2022/03/01 08:55:10;;;;;;;0.67;0.67;;;4.30;99.90;;;;;;5018863;28;20654;-86
2022/03/01 08:57:37;;;;;;;0.63;0.40;;;4.50;99.90;;;;;;5013394;28;20214;-86
2022/03/01 09:00:09;;;;;;;1.77;1.67;;;4.70;99.90;;;;;;5018630;28;20695;-86
2022/03/01 09:02:36;;;;;;;0.40;0.40;;;4.40;99.90;;;;;;5023544;28;20186;-86
2022/03/01 09:05:01;;;;;;;2.83;1.27;;;4.10;99.90;;;;;;5020076;28;20201;-86
2022/03/01 09:07:27;;;;;;;2.00;0.90;;;3.80;99.90;;;;;;5022118;28;20193;-83
2022/03/01 09:09:53;;;;;;;0.47;0.47;;;4.30;99.90;;;;;;5022334;28;20236;-85
2022/03/01 09:12:19;;;;;;;1.63;1.53;;;4.70;99.90;;;;;;5022221;28;20193;-85
2022/03/01 09:14:44;;;;;;;3.03;1.70;;;4.60;99.90;;;;;;5028973;28;20197;-85
2022/03/01 09:17:10;;;;;;;4.80;2.63;;;4.70;99.90;;;;;;5022315;28;20224;-85
2022/03/01 09:19:37;;;;;;;1.90;1.23;;;4.50;99.90;;;;;;5028121;28;20218;-85
2022/03/01 09:22:03;;;;;;;2.90;2.60;;;4.70;99.90;;;;;;5024378;28;20192;-85
2022/03/01 09:24:29;;;;;;;0.70;0.70;;;4.60;99.90;;;;;;5023519;28;20293;-85
2022/03/01 09:26:57;;;;;;;0.43;0.43;;;5.20;99.90;;;;;;5022333;28;20213;-85
2022/03/01 09:29:23;;;;;;;0.87;0.87;;;5.20;99.90;;;;;;5027751;28;20210;-85
2022/03/01 09:31:49;;;;;;;4.03;0.70;;;5.50;99.90;;;;;;5027225;28;20652;-85
2022/03/01 09:34:15;;;;;;;0.23;0.23;;;5.70;99.90;;;;;;5024937;28;20194;-85
2022/03/01 09:36:40;;;;;;;1.43;1.13;;;5.80;99.90;;;;;;5024087;28;20591;-85
2022/03/01 09:39:06;;;;;;;1.07;0.60;;;5.70;99.90;;;;;;5022144;28;20214;-85
2022/03/01 09:41:33;;;;;;;1.67;0.80;;;5.60;99.90;;;;;;5024989;28;20187;-85
2022/03/01 09:43:59;;;;;;;1.13;0.53;;;5.00;99.90;;;;;;5021998;28;20198;-86
2022/03/01 09:46:25;;;;;;;1.60;1.47;;;4.90;99.90;;;;;;5024280;28;20194;-85
2022/03/01 09:48:50;;;;;;;0.40;0.40;;;4.50;99.90;;;;;;5021539;28;20243;-85
2022/03/01 09:51:18;;;;;;;5.00;1.00;;;4.70;99.90;;;;;;5023309;28;20232;-83
2022/03/01 09:53:43;;;;;;;6.90;0.67;;;4.70;99.90;;;;;;5021815;28;20655;-85
2022/03/01 09:56:10;;;;;;;0.70;0.70;;;4.30;99.90;;;;;;5021562;28;20240;-85
2022/03/01 09:58:36;;;;;;;3.00;1.03;;;4.40;99.90;;;;;;5023259;28;20239;-84
2022/03/01 10:01:02;;;;;;;1.60;0.40;;;4.90;99.90;;;;;;5021512;28;20191;-85
2022/03/01 10:03:28;;;;;;;1.43;1.13;;;4.60;99.90;;;;;;5022003;28;20237;-85
2022/03/01 10:06:04;;;;;;;1.67;0.90;;;5.00;99.90;;;;;;5026049;28;20251;-84
2022/03/01 10:08:31;;;;;;;0.87;0.77;;;5.50;99.90;;;;;;5026255;28;20801;-84
2022/03/01 10:10:57;;;;;;;0.73;0.53;;;5.80;99.90;;;;;;5023086;28;20193;-84
2022/03/01 10:13:25;;;;;;;0.40;0.40;;;6.30;99.90;;;;;;5023757;28;21295;-84
2022/03/01 10:16:02;;;;;;;1.17;1.10;;;6.50;99.90;;;;;;5024030;28;20303;-84
2022/03/01 10:18:32;;;;;;;0.57;0.57;;;6.60;99.90;;;;;;5024623;28;20269;-85
2022/03/01 10:21:12;;;;;;;0.73;0.63;;;6.50;99.90;;;;;;5026341;28;20182;-85
2022/03/01 10:23:47;;;;;;;1.30;1.20;;;6.70;99.90;;;;;;5028212;28;20185;-85
2022/03/01 10:26:14;;;;;;;0.60;0.60;;;7.30;99.90;;;;;;5023744;28;20216;-85
2022/03/01 10:28:41;;;;;;;1.33;1.10;;;7.00;99.90;;;;;;5027937;28;20689;-83
2022/03/01 10:31:15;;;;;;;0.73;0.60;;;7.00;99.90;;;;;;5026235;28;20256;-85
2022/03/01 10:34:02;;;;;;;2.73;1.67;;;7.30;99.90;;;;;;5024984;28;20193;-84
2022/03/01 10:36:48;;;;;;;0.47;0.47;;;7.30;99.90;;;;;;5025508;28;20301;-84
2022/03/01 10:39:19;;;;;;;0.47;0.43;;;6.90;99.90;;;;;;5019917;28;20234;-84
2022/03/01 10:41:49;;;;;;;1.13;1.03;;;7.30;99.90;;;;;;5028634;28;20175;-85
2022/03/01 10:44:23;;;;;;;0.80;0.80;;;7.90;99.90;;;;;;5029964;28;20184;-85
2022/03/01 10:46:52;;;;;;;1.07;0.77;;;8.30;99.90;;;;;;5030345;28;20634;-85
2022/03/01 10:49:25;;;;;;;1.60;1.13;;;8.10;99.90;;;;;;5026964;28;20278;-84
2022/03/01 10:51:52;;;;;;;1.63;1.53;;;7.50;99.90;;;;;;5026390;28;20193;-83
2022/03/01 10:54:39;;;;;;;0.67;0.40;;;7.20;99.90;;;;;;5028319;28;20198;-83
2022/03/01 10:57:07;;;;;;;0.70;0.67;;;7.20;99.90;;;;;;5037308;28;20214;-84
2022/03/01 10:59:38;;;;;;;1.10;1.07;;;7.30;99.90;;;;;;5034593;28;20239;-83
2022/03/01 11:02:05;;;;;;;1.80;0.90;;;7.80;99.90;;;;;;5031950;28;20193;-83
2022/03/01 11:04:32;;;;;;;2.57;1.20;;;8.40;99.90;;;;;;5034027;28;20217;-83
2022/03/01 11:07:00;;;;;;;1.80;1.07;;;8.40;99.90;;;;;;5034069;28;20249;-83
2022/03/01 11:09:29;;;;;;;0.80;0.80;;;7.50;99.90;;;;;;5033663;28;20235;-83
2022/03/01 11:11:56;;;;;;;2.80;1.00;;;8.00;99.90;;;;;;5032876;28;20217;-83
2022/03/01 11:14:31;;;;;;;0.67;0.67;;;7.60;99.90;;;;;;5032225;28;20217;-82
2022/03/01 11:17:17;;;;;;;1.13;0.83;;;6.80;99.90;;;;;;5030769;28;20213;-82
2022/03/01 11:20:04;;;;;;;1.33;1.23;;;6.80;99.90;;;;;;5029645;28;20196;-83
2022/03/01 11:22:38;;;;;;;1.90;1.03;;;6.80;99.90;;;;;;5036313;28;20175;-83
2022/03/01 11:25:04;;;;;;;1.63;0.93;;;7.60;99.90;;;;;;5029552;28;20170;-82
2022/03/01 11:27:29;;;;;;;0.77;0.77;;;7.60;99.90;;;;;;5029667;28;20187;-83
2022/03/01 11:30:08;;;;;;;1.23;0.90;;;7.50;99.90;;;;;;5030591;28;20214;-83
2022/03/01 11:32:39;;;;;;;0.77;0.77;;;7.00;99.90;;;;;;5034009;28;20230;-82
2022/03/01 11:35:05;;;;;;;0.20;0.20;;;7.10;99.90;;;;;;5032079;28;20194;-83
2022/03/01 11:37:32;;;;;;;0.40;0.40;;;7.50;99.90;;;;;;5031094;28;20216;-83
2022/03/01 11:40:04;;;;;;;3.40;0.70;;;7.50;99.90;;;;;;5034691;28;20202;-83
2022/03/01 11:42:34;;;;;;;2.37;1.13;;;7.60;99.90;;;;;;5030459;28;20664;-82
2022/03/01 11:45:09;;;;;;;0.87;0.87;;;7.00;99.90;;;;;;5033375;28;20183;-82
2022/03/01 11:47:35;;;;;;;3.20;1.10;;;7.40;99.90;;;;;;5033026;28;20183;-83
2022/03/01 11:50:18;;;;;;;2.00;0.60;;;7.60;99.90;;;;;;5034713;28;20206;-83
2022/03/01 11:53:00;;;;;;;0.67;0.53;;;8.00;99.90;;;;;;5034358;28;20191;-83
2022/03/01 11:55:49;;;;;;;2.73;1.40;;;8.10;99.90;;;;;;5036162;28;20186;-83
2022/03/01 11:58:15;;;;;;;0.53;0.50;;;8.70;99.90;;;;;;5030432;28;20210;-83
2022/03/01 12:00:42;;;;;;;0.30;0.30;;;9.20;99.90;;;;;;5033564;28;20191;-83
2022/03/01 12:03:14;;;;;;;1.67;1.17;;;9.40;99.90;;;;;;5031877;28;20201;-83
2022/03/01 12:05:41;;;;;;;5.20;1.77;;;7.80;99.90;;;;;;5027802;28;20199;-83
2022/03/01 12:08:12;;;;;;;0.30;0.30;;;7.70;99.90;;;;;;5034439;28;20213;-83
2022/03/01 12:10:38;;;;;;;1.00;0.90;;;7.70;99.90;;;;;;5033632;28;20619;-83
2022/03/01 12:13:07;;;;;;;2.13;2.00;;;8.00;99.90;;;;;;5033825;28;20540;-82
2022/03/01 12:15:41;;;;;;;1.00;1.00;;;7.80;99.90;;;;;;5034168;28;21003;-82
2022/03/01 12:18:14;;;;;;;0.77;0.63;;;7.90;99.90;;;;;;5033895;28;20233;-83
2022/03/01 12:20:42;;;;;;;1.60;1.40;;;8.10;99.90;;;;;;5034110;28;20752;-82
2022/03/01 12:23:08;;;;;;;1.53;1.27;;;8.00;99.90;;;;;;5031670;28;20206;-82
2022/03/01 12:25:36;;;;;;;0.93;0.93;;;8.70;99.90;;;;;;5033671;28;20262;-83
2022/03/01 12:28:05;;;;;;;0.73;0.73;;;9.00;99.90;;;;;;5035221;28;20257;-83
2022/03/01 12:30:32;;;;;;;1.10;0.83;;;9.20;99.90;;;;;;5035241;28;20615;-83
2022/03/01 12:32:59;;;;;;;1.00;1.00;;;9.30;99.90;;;;;;5029187;28;20720;-83
2022/03/01 12:35:27;;;;;;;3.30;1.53;;;7.80;99.90;;;;;;5025613;28;20247;-83
2022/03/01 12:38:04;;;;;;;1.50;0.93;;;7.90;99.90;;;;;;5029183;28;20686;-82
2022/03/01 12:40:31;;;;;;;0.53;0.40;;;8.10;99.90;;;;;;5025346;28;20210;-83
2022/03/01 12:43:19;;;;;;;2.73;0.90;;;8.50;99.90;;;;;;5026933;28;20189;-82
2022/03/01 12:45:47;;;;;;;1.97;1.20;;;8.80;99.90;;;;;;5026533;28;20197;-83
2022/03/01 12:48:15;;;;;;;2.57;1.13;;;9.30;99.90;;;;;;5022609;28;20211;-83
2022/03/01 12:50:49;;;;;;;0.93;0.70;;;9.20;99.90;;;;;;5022448;28;20230;-84
2022/03/01 12:53:16;;;;;;;0.67;0.67;;;8.50;99.90;;;;;;5026716;28;20280;-83
2022/03/01 12:55:45;;;;;;;0.70;0.67;;;8.40;99.90;;;;;;5022731;28;20193;-83
2022/03/01 12:58:19;;;;;;;1.17;1.17;;;8.10;99.90;;;;;;5024353;28;20217;-83
2022/03/01 13:00:46;;;;;;;0.50;0.50;;;8.30;99.90;;;;;;5030554;28;20197;-83